createdAt,value
2019-02-02T00:00:39.352Z,13.27
2019-02-02T00:03:11.765Z,16.33
2019-02-02T00:05:43.718Z,13.83
2019-02-02T00:08:15.587Z,13.53
2019-02-02T00:10:47.619Z,18.30
2019-02-02T00:13:19.619Z,15.17
2019-02-02T00:15:51.439Z,11.97
2019-02-02T00:18:23.438Z,12.60
2019-02-02T00:20:55.433Z,15.87
2019-02-02T00:23:27.259Z,16.00
2019-02-02T00:25:59.244Z,14.60
2019-02-02T00:28:31.281Z,13.10
2019-02-02T00:31:03.478Z,14.07
2019-02-02T00:33:35.317Z,12.10
2019-02-02T00:36:07.485Z,12.67
2019-02-02T00:38:39.345Z,14.97
2019-02-02T00:41:11.352Z,18.53
2019-02-02T00:43:43.348Z,15.57
2019-02-02T00:46:15.182Z,15.27
2019-02-02T00:48:47.346Z,17.10
2019-02-02T00:51:19.231Z,12.60
2019-02-02T00:53:51.336Z,14.30
2019-02-02T00:56:23.391Z,12.87
2019-02-02T00:58:58.393Z,17.47
2019-02-02T01:01:30.700Z,15.57
2019-02-02T01:04:02.885Z,14.70
2019-02-02T01:06:36.949Z,14.63
2019-02-02T01:09:20.329Z,14.20
2019-02-02T01:11:52.379Z,12.17
2019-02-02T01:14:24.660Z,12.80
2019-02-02T01:16:56.490Z,15.37
2019-02-02T01:19:28.453Z,14.10
2019-02-02T01:22:00.432Z,13.63
2019-02-02T01:24:33.895Z,16.73
2019-02-02T01:27:05.837Z,14.27
2019-02-02T01:29:38.043Z,14.13
2019-02-02T01:32:13.880Z,15.73
2019-02-02T01:34:44.630Z,12.53
2019-02-02T01:37:16.463Z,16.00
2019-02-02T01:39:48.256Z,14.63
2019-02-02T01:42:20.088Z,14.77
2019-02-02T01:44:51.912Z,12.23
2019-02-02T01:47:23.886Z,12.23
2019-02-02T01:49:55.761Z,12.77
2019-02-02T01:52:27.681Z,14.23
2019-02-02T01:54:59.702Z,14.40
2019-02-02T01:57:31.522Z,11.80
2019-02-02T02:00:03.454Z,11.27
2019-02-02T02:02:35.577Z,10.93
2019-02-02T02:05:07.810Z,13.97
2019-02-02T02:07:39.803Z,14.80
2019-02-02T02:10:13.324Z,14.67
2019-02-02T02:12:45.535Z,16.30
2019-02-02T02:15:18.590Z,11.77
2019-02-02T02:17:50.471Z,10.70
2019-02-02T02:20:24.435Z,13.43
2019-02-02T02:22:56.356Z,13.97
2019-02-02T02:25:28.251Z,12.47
2019-02-02T02:28:00.223Z,12.73
2019-02-02T02:30:32.197Z,11.20
2019-02-02T02:33:04.011Z,11.03
2019-02-02T02:35:36.037Z,13.50
2019-02-02T02:38:08.035Z,15.43
2019-02-02T02:40:39.887Z,15.03
2019-02-02T02:43:11.768Z,13.27
2019-02-02T02:45:43.618Z,13.80
2019-02-02T02:48:15.444Z,12.90
2019-02-02T02:50:47.429Z,11.30
2019-02-02T02:53:19.365Z,12.87
2019-02-02T02:55:51.251Z,11.60
2019-02-02T02:58:23.026Z,12.23
2019-02-02T03:00:54.864Z,9.77
2019-02-02T03:03:26.686Z,12.27
2019-02-02T03:05:58.459Z,10.67
2019-02-02T03:08:30.379Z,12.97
2019-02-02T03:11:02.185Z,11.60
2019-02-02T03:13:33.981Z,15.27
2019-02-02T03:16:06.059Z,14.87
2019-02-02T03:18:38.043Z,14.20
2019-02-02T03:21:09.887Z,11.03
2019-02-02T03:23:41.770Z,12.37
2019-02-02T03:26:13.672Z,13.43
2019-02-02T03:28:53.248Z,12.37
2019-02-02T03:31:19.362Z,13.67
2019-02-02T03:33:51.204Z,11.03
2019-02-02T03:36:23.283Z,14.87
2019-02-02T03:38:55.104Z,12.70
2019-02-02T03:41:27.213Z,13.20
2019-02-02T03:43:59.059Z,13.10
2019-02-02T03:46:30.880Z,16.87
2019-02-02T03:49:03.124Z,13.47
2019-02-02T03:51:35.066Z,13.50
2019-02-02T03:54:09.025Z,14.00
2019-02-02T03:56:40.745Z,12.53
2019-02-02T03:59:12.656Z,13.00
2019-02-02T04:01:44.689Z,15.30
2019-02-02T04:04:16.516Z,13.03
2019-02-02T04:06:49.715Z,14.77
2019-02-02T04:09:21.510Z,14.23
2019-02-02T04:11:53.359Z,14.07
2019-02-02T04:14:25.185Z,15.53
2019-02-02T04:16:57.025Z,14.77
2019-02-02T04:19:28.848Z,15.17
2019-02-02T04:22:00.853Z,14.37
2019-02-02T04:24:32.645Z,15.77
2019-02-02T04:27:04.484Z,14.07
2019-02-02T04:29:36.266Z,15.47
2019-02-02T04:32:08.088Z,13.80
2019-02-02T04:34:39.939Z,12.83
2019-02-02T04:37:12.059Z,14.67
2019-02-02T04:39:44.000Z,15.97
2019-02-02T04:42:16.084Z,14.20
2019-02-02T04:44:48.043Z,15.80
2019-02-02T04:47:20.202Z,16.47
2019-02-02T04:49:55.013Z,13.77
2019-02-02T04:52:26.843Z,18.13
2019-02-02T04:54:58.691Z,14.73
2019-02-02T04:57:30.518Z,14.87
2019-02-02T05:00:02.322Z,16.77
2019-02-02T05:02:34.229Z,16.77
2019-02-02T05:05:08.404Z,13.63
2019-02-02T05:07:40.339Z,14.27
2019-02-02T05:10:15.380Z,16.27
2019-02-02T05:12:47.601Z,15.37
2019-02-02T05:15:19.671Z,16.77
2019-02-02T05:17:51.822Z,15.33
2019-02-02T05:20:23.931Z,14.90
2019-02-02T05:22:55.706Z,15.27
2019-02-02T05:25:27.651Z,16.17
2019-02-02T05:27:59.610Z,17.70
2019-02-02T05:30:32.464Z,14.30
2019-02-02T05:33:04.237Z,15.47
2019-02-02T05:35:36.057Z,14.80
2019-02-02T05:38:08.222Z,15.97
2019-02-02T05:40:40.260Z,13.03
2019-02-02T05:43:12.291Z,12.90
2019-02-02T05:45:44.046Z,15.53
2019-02-02T05:48:15.869Z,14.17
2019-02-02T05:50:47.776Z,15.93
2019-02-02T05:53:19.760Z,14.90
2019-02-02T05:55:51.668Z,13.43
2019-02-02T05:58:23.467Z,17.27
2019-02-02T06:00:56.499Z,13.57
2019-02-02T06:03:28.377Z,16.47
2019-02-02T06:06:01.555Z,16.37
2019-02-02T06:08:33.887Z,13.43
2019-02-02T06:11:05.993Z,16.50
2019-02-02T06:13:38.036Z,15.00
2019-02-02T06:16:09.922Z,15.20
2019-02-02T06:18:41.774Z,16.63
2019-02-02T06:21:13.786Z,18.13
2019-02-02T06:23:45.763Z,17.43
2019-02-02T06:26:17.556Z,18.80
2019-02-02T06:28:49.350Z,15.10
2019-02-02T06:31:21.257Z,15.53
2019-02-02T06:33:53.188Z,17.20
2019-02-02T06:36:25.063Z,19.03
2019-02-02T06:38:56.913Z,15.43
2019-02-02T06:41:28.699Z,17.00
2019-02-02T06:44:00.619Z,16.97
2019-02-02T06:46:43.008Z,16.90
2019-02-02T06:49:06.139Z,15.43
2019-02-02T06:51:38.010Z,14.73
2019-02-02T06:54:09.807Z,18.17
2019-02-02T06:56:41.706Z,16.23
2019-02-02T06:59:13.844Z,14.40
2019-02-02T07:01:45.667Z,15.47
2019-02-02T07:04:17.446Z,15.47
2019-02-02T07:06:49.358Z,17.53
2019-02-02T07:09:21.139Z,17.53
2019-02-02T07:11:52.961Z,15.40
2019-02-02T07:14:24.855Z,16.77
2019-02-02T07:16:56.676Z,18.13
2019-02-02T07:19:29.218Z,15.93
2019-02-02T07:22:01.533Z,15.80
2019-02-02T07:24:33.357Z,19.17
2019-02-02T07:27:05.203Z,16.90
2019-02-02T07:29:37.167Z,16.17
2019-02-02T07:32:08.963Z,16.60
2019-02-02T07:34:42.012Z,19.10
2019-02-02T07:37:13.873Z,18.93
2019-02-02T07:39:45.666Z,17.67
2019-02-02T07:42:17.509Z,19.20
2019-02-02T07:44:49.325Z,19.53
2019-02-02T07:47:21.235Z,21.00
2019-02-02T07:49:53.085Z,19.43
2019-02-02T07:52:24.974Z,20.00
2019-02-02T07:54:56.821Z,21.00
2019-02-02T07:57:28.620Z,22.80
2019-02-02T08:00:00.565Z,23.33
2019-02-02T08:02:32.718Z,22.47
2019-02-02T08:05:05.216Z,23.87
2019-02-02T08:07:37.061Z,22.10
2019-02-02T08:10:11.230Z,21.63
2019-02-02T08:12:43.672Z,20.60
2019-02-02T08:15:19.319Z,22.20
2019-02-02T08:17:51.320Z,21.27
2019-02-02T08:20:23.338Z,19.90
2019-02-02T08:22:56.645Z,21.83
2019-02-02T08:25:28.656Z,20.90
2019-02-02T08:28:00.496Z,21.40
2019-02-02T08:30:35.785Z,19.27
2019-02-02T08:33:08.525Z,21.67
2019-02-02T08:35:40.441Z,21.30
2019-02-02T08:38:12.537Z,22.80
2019-02-02T08:40:44.415Z,21.30
2019-02-02T08:43:16.225Z,22.47
2019-02-02T08:45:48.141Z,20.87
2019-02-02T08:48:20.151Z,21.37
2019-02-02T08:50:52.164Z,20.27
2019-02-02T08:53:24.170Z,22.87
2019-02-02T08:55:56.022Z,21.87
2019-02-02T08:58:27.990Z,22.20
2019-02-02T09:01:04.325Z,22.10
2019-02-02T09:03:33.994Z,23.20
2019-02-02T09:06:09.469Z,22.03
2019-02-02T09:08:45.526Z,21.07
2019-02-02T09:11:18.907Z,22.90
2019-02-02T09:13:52.069Z,26.23
2019-02-02T09:16:26.545Z,23.30
2019-02-02T09:19:05.827Z,24.87
2019-02-02T09:21:41.983Z,24.53
2019-02-02T09:24:13.806Z,22.20
2019-02-02T09:26:45.835Z,23.23
2019-02-02T09:29:17.683Z,23.97
2019-02-02T09:31:52.653Z,24.43
2019-02-02T09:34:24.475Z,23.40
2019-02-02T09:36:56.530Z,26.10
2019-02-02T09:39:28.640Z,22.43
2019-02-02T09:42:02.057Z,23.53
2019-02-02T09:44:33.936Z,22.53
2019-02-02T09:47:08.247Z,23.80
2019-02-02T09:49:43.756Z,22.67
2019-02-02T09:52:20.025Z,24.27
2019-02-02T09:54:53.432Z,21.73
2019-02-02T09:57:27.782Z,23.60
2019-02-02T09:59:59.075Z,23.73
2019-02-02T10:02:32.613Z,23.20
2019-02-02T10:05:05.528Z,23.23
2019-02-02T10:07:39.523Z,22.97
2019-02-02T10:10:17.807Z,23.47
2019-02-02T10:12:49.861Z,21.00
2019-02-02T10:15:22.060Z,20.40
2019-02-02T10:17:54.173Z,24.43
2019-02-02T10:20:28.479Z,20.50
2019-02-02T10:23:01.305Z,21.33
2019-02-02T10:25:33.547Z,31.90
2019-02-02T10:28:06.121Z,24.17
2019-02-02T10:30:43.743Z,24.33
2019-02-02T10:33:17.261Z,22.03
2019-02-02T10:35:49.110Z,28.80
2019-02-02T10:38:21.167Z,25.53
2019-02-02T10:40:53.357Z,27.85
2019-02-02T10:43:25.632Z,24.80
2019-02-02T10:45:58.007Z,24.17
2019-02-02T10:48:30.263Z,23.30
2019-02-02T10:51:05.868Z,25.07
2019-02-02T10:53:37.872Z,26.90
2019-02-02T10:56:12.153Z,23.70
2019-02-02T10:58:44.456Z,28.03
2019-02-02T11:01:21.051Z,24.13
2019-02-02T11:03:53.593Z,24.20
2019-02-02T11:06:30.174Z,25.33
2019-02-02T11:09:03.241Z,24.83
2019-02-02T11:11:36.904Z,21.73
2019-02-02T11:14:10.814Z,22.00
2019-02-02T11:16:42.819Z,23.00
2019-02-02T11:19:14.915Z,24.00
2019-02-02T11:21:48.974Z,24.27
2019-02-02T11:24:21.283Z,25.90
2019-02-02T11:26:53.433Z,23.07
2019-02-02T11:29:27.085Z,24.80
2019-02-02T11:32:02.899Z,23.50
2019-02-02T11:34:32.855Z,23.20
2019-02-02T11:37:04.994Z,21.23
2019-02-02T11:39:38.182Z,23.60
2019-02-02T11:42:12.644Z,23.50
2019-02-02T11:44:44.182Z,22.77
2019-02-02T11:47:16.103Z,24.60
2019-02-02T11:49:48.587Z,21.47
2019-02-02T11:52:23.270Z,22.73
2019-02-02T11:54:56.990Z,26.20
2019-02-02T11:57:30.685Z,23.30
2019-02-02T12:00:02.851Z,22.20
2019-02-02T12:02:35.729Z,24.90
2019-02-02T12:05:08.808Z,24.03
2019-02-02T12:07:40.779Z,23.30
2019-02-02T12:10:15.628Z,23.60
2019-02-02T12:12:47.709Z,23.03
2019-02-02T12:15:20.558Z,25.30
2019-02-02T12:17:52.877Z,23.53
2019-02-02T12:20:25.440Z,23.93
2019-02-02T12:22:57.915Z,22.07
2019-02-02T12:25:30.113Z,26.30
2019-02-02T12:28:02.227Z,24.33
2019-02-02T12:30:37.067Z,23.67
2019-02-02T12:33:09.317Z,26.10
2019-02-02T12:35:41.165Z,24.47
2019-02-02T12:38:13.387Z,22.97
2019-02-02T12:40:45.274Z,23.60
2019-02-02T12:43:17.277Z,22.53
2019-02-02T12:45:53.066Z,26.90
2019-02-02T12:48:25.206Z,27.47
2019-02-02T12:50:57.062Z,24.30
2019-02-02T12:53:29.305Z,27.03
2019-02-02T12:56:01.398Z,26.97
2019-02-02T12:58:35.527Z,26.57
2019-02-02T13:01:21.574Z,29.10
2019-02-02T13:04:01.414Z,26.57
2019-02-02T13:06:31.692Z,29.40
2019-02-02T13:09:09.027Z,30.60
2019-02-02T13:11:43.998Z,29.10
2019-02-02T13:14:15.926Z,28.43
2019-02-02T13:16:50.167Z,27.40
2019-02-02T13:19:22.213Z,29.40
2019-02-02T13:21:54.109Z,30.43
2019-02-02T13:24:26.049Z,28.33
2019-02-02T13:26:58.013Z,33.97
2019-02-02T13:29:30.089Z,33.67
2019-02-02T13:32:02.178Z,33.93
2019-02-02T13:34:34.230Z,32.63
2019-02-02T13:37:06.429Z,33.27
2019-02-02T13:39:38.295Z,29.67
2019-02-02T13:42:11.583Z,36.70
2019-02-02T13:44:43.524Z,34.70
2019-02-02T13:47:15.925Z,32.43
2019-02-02T13:49:47.951Z,35.23
2019-02-02T13:52:19.802Z,35.13
2019-02-02T13:54:51.762Z,34.83
2019-02-02T13:57:23.645Z,35.63
2019-02-02T13:59:56.771Z,35.13
2019-02-02T14:02:33.724Z,34.77
2019-02-02T14:05:07.621Z,34.00
2019-02-02T14:07:39.642Z,33.77
2019-02-02T14:10:20.289Z,32.53
2019-02-02T14:12:52.067Z,33.27
2019-02-02T14:15:24.181Z,36.47
2019-02-02T14:17:56.072Z,32.63
2019-02-02T14:20:28.121Z,33.30
2019-02-02T14:23:00.017Z,34.37
2019-02-02T14:25:32.098Z,30.97
2019-02-02T14:28:04.207Z,34.10
2019-02-02T14:30:36.310Z,34.20
2019-02-02T14:33:14.296Z,32.63
2019-02-02T14:35:42.111Z,33.63
2019-02-02T14:38:14.398Z,32.00
2019-02-02T14:40:46.435Z,34.17
2019-02-02T14:43:18.266Z,33.13
2019-02-02T14:45:50.173Z,32.50
2019-02-02T14:48:22.130Z,32.83
2019-02-02T14:50:54.111Z,32.07
2019-02-02T14:53:26.458Z,45.00
2019-02-02T14:56:02.361Z,32.53
2019-02-02T14:58:34.660Z,33.20
2019-02-02T15:01:08.005Z,29.67
2019-02-02T15:03:40.283Z,34.07
2019-02-02T15:06:15.953Z,31.63
2019-02-02T15:08:47.939Z,31.73
2019-02-02T15:11:19.855Z,35.47
2019-02-02T15:13:52.028Z,31.83
2019-02-02T15:16:23.992Z,33.07
2019-02-02T15:18:56.038Z,33.30
2019-02-02T15:21:28.004Z,35.57
2019-02-02T15:24:02.451Z,35.73
2019-02-02T15:26:34.540Z,37.50
2019-02-02T15:29:07.109Z,38.63
2019-02-02T15:31:40.619Z,34.40
2019-02-02T15:34:12.547Z,35.77
2019-02-02T15:36:44.799Z,35.17
2019-02-02T15:39:16.958Z,36.40
2019-02-02T15:41:53.093Z,36.40
2019-02-02T15:44:24.289Z,38.17
2019-02-02T15:46:56.241Z,38.60
2019-02-02T15:49:29.723Z,37.37
2019-02-02T15:52:05.569Z,42.40
2019-02-02T15:54:37.746Z,40.33
2019-02-02T15:57:09.666Z,42.40
2019-02-02T15:59:41.853Z,39.47
2019-02-02T16:02:14.043Z,40.43
2019-02-02T16:04:46.120Z,42.10
2019-02-02T16:07:18.169Z,39.67
2019-02-02T16:09:50.079Z,42.77
2019-02-02T16:12:23.192Z,37.83
2019-02-02T16:14:55.180Z,37.40
2019-02-02T16:17:27.158Z,37.90
2019-02-02T16:19:59.380Z,35.77
2019-02-02T16:22:31.590Z,40.20
2019-02-02T16:25:04.283Z,39.77
2019-02-02T16:27:36.342Z,39.70
2019-02-02T16:30:12.930Z,41.53
2019-02-02T16:32:45.110Z,39.10
2019-02-02T16:35:17.152Z,38.20
2019-02-02T16:37:49.158Z,42.70
2019-02-02T16:40:27.959Z,37.77
2019-02-02T16:43:02.683Z,37.83
2019-02-02T16:45:36.659Z,38.07
2019-02-02T16:48:09.138Z,34.87
2019-02-02T16:50:51.078Z,37.23
2019-02-02T16:53:27.434Z,37.50
2019-02-02T16:55:59.407Z,38.50
2019-02-02T16:58:31.444Z,43.03
2019-02-02T17:01:03.669Z,39.30
2019-02-02T17:03:35.703Z,41.53
2019-02-02T17:06:14.652Z,39.70
2019-02-02T17:08:46.654Z,41.57
2019-02-02T17:11:18.736Z,45.00
2019-02-02T17:13:52.503Z,40.93
2019-02-02T17:16:24.147Z,39.57
2019-02-02T17:18:56.025Z,44.30
2019-02-02T17:21:29.186Z,41.77
2019-02-02T17:24:01.393Z,40.70
2019-02-02T17:26:33.298Z,45.33
2019-02-02T17:29:06.211Z,43.40
2019-02-02T17:31:38.144Z,45.83
2019-02-02T17:34:10.974Z,41.80
2019-02-02T17:36:42.819Z,42.93
2019-02-02T17:39:14.754Z,43.03
2019-02-02T17:41:46.752Z,42.20
2019-02-02T17:44:18.859Z,42.07
2019-02-02T17:46:51.347Z,44.07
2019-02-02T17:49:24.533Z,45.30
2019-02-02T17:51:57.820Z,46.93
2019-02-02T17:54:29.764Z,43.40
2019-02-02T17:57:03.106Z,48.13
2019-02-02T17:59:34.941Z,49.90
2019-02-02T18:02:07.232Z,44.97
2019-02-02T18:04:43.046Z,46.10
2019-02-02T18:07:23.082Z,46.37
2019-02-02T18:09:58.900Z,44.40
2019-02-02T18:12:30.822Z,47.57
2019-02-02T18:15:02.640Z,46.93
2019-02-02T18:17:34.731Z,45.03
2019-02-02T18:20:10.262Z,48.60
2019-02-02T18:22:44.231Z,46.93
2019-02-02T18:25:16.364Z,44.87
2019-02-02T18:27:48.329Z,48.37
2019-02-02T18:30:24.416Z,47.10
2019-02-02T18:32:58.336Z,45.13
2019-02-02T18:35:30.115Z,44.87
2019-02-02T18:38:02.206Z,45.63
2019-02-02T18:40:34.175Z,47.33
2019-02-02T18:43:06.266Z,46.03
2019-02-02T18:45:38.075Z,42.90
2019-02-02T18:48:12.697Z,44.20
2019-02-02T18:50:48.858Z,48.33
2019-02-02T18:53:20.513Z,47.50
2019-02-02T18:56:02.376Z,46.33
2019-02-02T18:58:34.252Z,46.40
2019-02-02T19:01:06.517Z,43.50
2019-02-02T19:03:38.443Z,44.50
2019-02-02T19:06:10.455Z,45.63
2019-02-02T19:08:42.394Z,45.30
2019-02-02T19:11:14.396Z,46.03
2019-02-02T19:13:47.954Z,49.00
2019-02-02T19:16:23.069Z,44.93
2019-02-02T19:18:54.941Z,42.70
2019-02-02T19:21:26.954Z,41.63
2019-02-02T19:23:58.921Z,43.90
2019-02-02T19:26:32.103Z,44.20
2019-02-02T19:29:04.151Z,45.00
2019-02-02T19:31:36.153Z,42.93
2019-02-02T19:34:08.104Z,40.10
2019-02-02T19:36:40.169Z,43.43
2019-02-02T19:39:12.272Z,48.10
2019-02-02T19:41:44.219Z,45.37
2019-02-02T19:44:17.299Z,40.03
2019-02-02T19:46:49.273Z,43.63
2019-02-02T19:49:22.538Z,44.07
2019-02-02T19:51:54.634Z,38.73
2019-02-02T19:54:26.720Z,41.73
2019-02-02T19:57:03.973Z,45.67
2019-02-02T19:59:39.470Z,38.70
2019-02-02T20:02:13.980Z,43.17
2019-02-02T20:04:46.036Z,38.10
2019-02-02T20:07:17.986Z,43.00
2019-02-02T20:09:50.043Z,44.50
2019-02-02T20:12:24.802Z,41.60
2019-02-02T20:14:57.170Z,41.80
2019-02-02T20:17:29.070Z,37.53
2019-02-02T20:20:01.860Z,37.83
2019-02-02T20:22:35.990Z,39.00
2019-02-02T20:25:10.119Z,38.27
2019-02-02T20:27:44.367Z,36.97
2019-02-02T20:30:23.779Z,35.27
2019-02-02T20:32:55.959Z,37.30
2019-02-02T20:35:39.778Z,34.33
2019-02-02T20:38:01.723Z,38.07
2019-02-02T20:40:35.044Z,38.60
2019-02-02T20:43:07.346Z,38.23
2019-02-02T20:45:39.618Z,35.23
2019-02-02T20:48:11.696Z,38.27
2019-02-02T20:50:43.791Z,38.53
2019-02-02T20:53:16.038Z,34.47
2019-02-02T20:55:48.320Z,40.03
2019-02-02T20:58:20.304Z,39.43
2019-02-02T21:00:52.240Z,36.80
2019-02-02T21:03:24.282Z,42.77
2019-02-02T21:05:59.158Z,35.90
2019-02-02T21:08:33.273Z,38.50
2019-02-02T21:11:05.902Z,35.47
2019-02-02T21:13:38.141Z,38.30
2019-02-02T21:16:10.077Z,41.17
2019-02-02T21:18:43.545Z,41.03
2019-02-02T21:21:15.686Z,39.60
2019-02-02T21:23:47.688Z,40.00
2019-02-02T21:26:19.958Z,47.17
2019-02-02T21:28:52.150Z,44.70
2019-02-02T21:31:24.385Z,38.00
2019-02-02T21:33:56.510Z,43.43
2019-02-02T21:36:28.408Z,41.70
2019-02-02T21:39:00.445Z,42.63
2019-02-02T21:41:32.524Z,41.57
2019-02-02T21:44:04.675Z,41.13
2019-02-02T21:46:36.743Z,44.60
2019-02-02T21:49:09.112Z,44.97
2019-02-02T21:51:41.161Z,43.43
2019-02-02T21:54:13.334Z,41.57
2019-02-02T21:56:45.301Z,43.80
2019-02-02T21:59:20.725Z,44.93
2019-02-02T22:01:52.900Z,38.97
2019-02-02T22:04:27.376Z,45.67
2019-02-02T22:07:02.200Z,42.73
2019-02-02T22:09:34.687Z,40.10
2019-02-02T22:12:07.001Z,41.43
2019-02-02T22:14:40.097Z,41.67
2019-02-02T22:17:12.841Z,39.57
2019-02-02T22:19:45.060Z,39.70
2019-02-02T22:22:16.952Z,39.17
2019-02-02T22:24:51.557Z,41.43
2019-02-02T22:27:25.245Z,44.67
2019-02-02T22:29:57.274Z,43.80
2019-02-02T22:32:29.369Z,47.30
2019-02-02T22:35:01.254Z,47.17
2019-02-02T22:37:33.245Z,46.37
2019-02-02T22:40:07.260Z,46.67
2019-02-02T22:42:39.185Z,46.40
2019-02-02T22:45:14.816Z,47.13
2019-02-02T22:47:46.899Z,46.17
2019-02-02T22:50:21.523Z,49.67
2019-02-02T22:52:53.701Z,44.00
2019-02-02T22:55:25.900Z,47.20
2019-02-02T22:57:57.984Z,46.03
2019-02-02T23:01:12.300Z,50.97
2019-02-02T23:04:17.790Z,44.53
2019-02-02T23:07:48.019Z,46.03
2019-02-02T23:11:04.722Z,50.93
2019-02-02T23:14:30.690Z,46.23
2019-02-02T23:17:02.677Z,48.67
2019-02-02T23:19:34.773Z,49.17
2019-02-02T23:22:06.914Z,46.03
2019-02-02T23:24:39.127Z,48.67
2019-02-02T23:27:11.150Z,46.80
2019-02-02T23:29:43.057Z,50.00
2019-02-02T23:32:14.932Z,47.03
2019-02-02T23:34:46.916Z,45.53
2019-02-02T23:37:18.911Z,52.13
2019-02-02T23:39:50.772Z,51.10
2019-02-02T23:42:22.843Z,52.13
2019-02-02T23:44:54.963Z,48.07
2019-02-02T23:47:26.773Z,50.73
2019-02-02T23:49:58.643Z,54.80
2019-02-02T23:52:30.569Z,51.40
2019-02-02T23:55:02.534Z,52.20
2019-02-02T23:57:34.578Z,56.23
